Time;durP1;ratioP1;P1;durP2;ratioP2;P2;SDS_P1;SDS_P2;PMS_P1;PMS_P2;Temp;Humidity;BMP_temperature;BMP_pressure;BME280_temperature;BME280_humidity;BME280_pressure;Samples;Min_cycle;Max_cycle;Signal;HPM_P1;HPM_P2
2022/08/18 00:01:18;;;;;;;16.52;6.18;;;21.60;99.90;;;;;;4954375;28;20026;-51
2022/08/18 00:03:44;;;;;;;11.23;6.57;;;21.60;99.90;;;;;;4954845;28;20078;-50
2022/08/18 00:06:10;;;;;;;10.77;6.68;;;21.60;99.90;;;;;;4954503;28;20019;-50
2022/08/18 00:08:35;;;;;;;12.38;6.25;;;21.60;99.90;;;;;;4954536;28;20481;-52
2022/08/18 00:11:01;;;;;;;12.70;6.22;;;21.50;99.90;;;;;;4954630;28;20027;-47
2022/08/18 00:13:26;;;;;;;6.90;6.20;;;21.50;99.90;;;;;;4954087;28;20046;-48
2022/08/18 00:15:52;;;;;;;18.00;7.68;;;21.50;99.90;;;;;;4954287;28;20412;-48
2022/08/18 00:18:18;;;;;;;13.20;8.18;;;21.50;99.90;;;;;;4954272;28;20046;-49
2022/08/18 00:20:44;;;;;;;12.88;6.72;;;21.50;99.90;;;;;;4954103;28;20110;-47
2022/08/18 00:23:10;;;;;;;19.52;8.05;;;21.50;99.90;;;;;;4953813;28;20039;-48
2022/08/18 00:25:35;;;;;;;35.78;23.45;;;21.40;99.90;;;;;;4953890;28;20086;-55
2022/08/18 00:28:01;;;;;;;23.83;15.65;;;21.50;99.90;;;;;;4954384;28;20027;-49
2022/08/18 00:30:26;;;;;;;20.02;12.15;;;21.40;99.90;;;;;;4953928;28;20042;-53
2022/08/18 00:32:55;;;;;;;17.63;9.32;;;21.40;99.90;;;;;;4953710;28;20512;-51
2022/08/18 00:35:30;;;;;;;12.40;9.48;;;21.30;99.90;;;;;;4953837;28;20110;-51
2022/08/18 00:37:58;;;;;;;12.13;8.10;;;21.30;99.90;;;;;;4953895;28;20557;-51
2022/08/18 00:40:39;;;;;;;9.13;8.00;;;21.30;99.90;;;;;;4953884;28;20032;-50
2022/08/18 00:43:07;;;;;;;15.52;9.20;;;21.40;99.90;;;;;;4953622;28;20299;-48
2022/08/18 00:45:39;;;;;;;17.00;8.30;;;21.50;99.90;;;;;;4953573;28;20031;-53
2022/08/18 00:48:06;;;;;;;13.45;7.70;;;21.50;99.90;;;;;;4953775;28;20081;-53
2022/08/18 00:50:47;;;;;;;10.25;8.45;;;21.40;99.90;;;;;;4953698;28;20031;-50
2022/08/18 00:53:40;;;;;;;13.52;8.43;;;21.40;99.90;;;;;;4953138;28;20400;-53
2022/08/18 00:56:12;;;;;;;14.60;9.13;;;21.40;99.90;;;;;;4953642;28;20027;-49
2022/08/18 00:58:47;;;;;;;11.48;7.93;;;21.50;99.90;;;;;;4953034;28;20114;-50
2022/08/18 01:01:15;;;;;;;10.95;7.82;;;21.60;99.90;;;;;;4953539;28;20023;-49
2022/08/18 01:03:43;;;;;;;15.13;8.90;;;21.60;99.90;;;;;;4953360;28;20015;-48
2022/08/18 01:06:16;;;;;;;14.55;7.95;;;21.70;99.90;;;;;;4953320;28;20030;-49
2022/08/18 01:08:42;;;;;;;7.70;7.00;;;21.70;99.90;;;;;;4953761;28;20489;-48
2022/08/18 01:11:09;;;;;;;14.70;8.15;;;21.60;99.90;;;;;;4953655;28;20043;-49
2022/08/18 01:13:37;;;;;;;14.40;9.50;;;21.50;99.90;;;;;;4953894;28;20023;-50
2022/08/18 01:21:49;;;;;;;15.13;9.05;;;21.50;99.90;;;;;;4954651;28;20035;-53
2022/08/18 01:21:50;;;;;;;11.48;8.68;;;21.30;99.90;;;;;;4953531;29;20412;-52
2022/08/18 01:24:18;;;;;;;12.88;7.53;;;21.20;99.90;;;;;;4953443;28;20036;-50
2022/08/18 01:26:53;;;;;;;15.32;7.72;;;21.20;99.90;;;;;;4953126;28;20512;-52
2022/08/18 01:29:19;;;;;;;16.85;8.95;;;21.30;99.90;;;;;;4953378;28;20374;-49
2022/08/18 01:31:50;;;;;;;11.52;8.65;;;21.30;99.90;;;;;;4951807;29;20114;-53
2022/08/18 01:34:16;;;;;;;11.40;9.18;;;21.40;99.90;;;;;;4953182;28;20081;-49
2022/08/18 01:36:42;;;;;;;12.45;9.48;;;21.40;99.90;;;;;;4953099;28;20499;-49
2022/08/18 01:39:10;;;;;;;15.68;8.90;;;21.40;99.90;;;;;;4953295;28;20027;-49
2022/08/18 01:41:37;;;;;;;13.50;8.63;;;21.30;99.90;;;;;;4953060;28;20022;-51
2022/08/18 01:44:03;;;;;;;9.30;8.40;;;21.30;99.90;;;;;;4952983;28;20049;-50
2022/08/18 01:46:33;;;;;;;10.82;8.75;;;21.20;99.90;;;;;;4953076;28;20019;-50
2022/08/18 01:49:00;;;;;;;9.48;8.27;;;21.20;99.90;;;;;;4951925;28;20130;-49
2022/08/18 01:51:31;;;;;;;12.25;8.05;;;21.20;99.90;;;;;;4953164;28;20027;-48
2022/08/18 01:53:57;;;;;;;12.70;7.97;;;21.10;99.90;;;;;;4953013;28;20037;-54
2022/08/18 01:56:25;;;;;;;14.07;7.88;;;21.10;99.90;;;;;;4953017;28;20023;-53
2022/08/18 01:58:51;;;;;;;15.48;8.07;;;21.10;99.90;;;;;;4953093;28;20031;-50
2022/08/18 02:01:16;;;;;;;10.60;8.00;;;21.10;99.90;;;;;;4952937;28;20408;-49
2022/08/18 02:03:47;;;;;;;13.68;7.88;;;21.00;99.90;;;;;;4953251;28;20032;-48
2022/08/18 02:06:15;;;;;;;15.80;6.68;;;21.00;99.90;;;;;;4952899;28;20397;-52
2022/08/18 02:08:41;;;;;;;8.85;7.15;;;21.00;99.90;;;;;;4953033;28;20074;-51
2022/08/18 02:11:07;;;;;;;8.15;6.97;;;21.00;99.90;;;;;;4956122;28;20027;-49
2022/08/18 02:13:33;;;;;;;11.57;7.30;;;21.00;99.90;;;;;;4956250;28;20050;-53
2022/08/18 02:15:58;;;;;;;7.20;6.50;;;21.10;99.90;;;;;;4956379;28;20114;-49
2022/08/18 02:18:29;;;;;;;13.05;7.43;;;21.10;99.90;;;;;;4956449;28;20031;-49
2022/08/18 02:20:55;;;;;;;9.07;6.50;;;21.10;99.90;;;;;;4956250;28;20572;-50
2022/08/18 02:23:21;;;;;;;12.75;6.22;;;21.10;99.90;;;;;;4956402;28;20437;-52
2022/08/18 02:25:47;;;;;;;9.45;6.72;;;21.20;99.90;;;;;;4954886;29;20030;-51
2022/08/18 02:28:12;;;;;;;8.95;6.28;;;21.20;99.90;;;;;;4956301;28;20027;-50
2022/08/18 02:30:38;;;;;;;9.00;6.45;;;21.20;99.90;;;;;;4956281;28;20608;-50
2022/08/18 02:33:09;;;;;;;11.35;6.50;;;21.20;99.90;;;;;;4955833;28;20031;-48
2022/08/18 02:35:36;;;;;;;10.30;6.88;;;21.20;99.90;;;;;;4956070;29;20528;-51
2022/08/18 02:38:03;;;;;;;7.25;6.38;;;21.20;99.90;;;;;;4955101;28;20035;-51
2022/08/18 02:40:32;;;;;;;9.65;7.70;;;21.20;99.90;;;;;;4954954;29;20042;-50
2022/08/18 02:42:58;;;;;;;7.68;5.35;;;21.10;99.90;;;;;;4954445;28;20110;-51
2022/08/18 02:45:24;;;;;;;9.52;5.35;;;21.10;99.90;;;;;;4956014;28;20392;-50
2022/08/18 02:47:53;;;;;;;6.88;5.63;;;21.10;99.90;;;;;;4954748;28;20118;-51
2022/08/18 02:50:19;;;;;;;6.57;5.18;;;21.10;99.90;;;;;;4955981;28;20031;-53
2022/08/18 02:52:44;;;;;;;6.75;5.47;;;21.10;99.90;;;;;;4955423;28;20110;-48
2022/08/18 02:55:10;;;;;;;10.57;5.70;;;21.10;99.90;;;;;;4955692;28;20027;-51
2022/08/18 02:57:41;;;;;;;8.18;5.60;;;21.10;99.90;;;;;;4955685;28;20469;-53
2022/08/18 03:00:10;;;;;;;8.25;5.50;;;21.10;99.90;;;;;;4955768;28;20031;-52
2022/08/18 03:02:35;;;;;;;10.70;6.07;;;21.10;99.90;;;;;;4955354;28;20489;-50
2022/08/18 03:05:01;;;;;;;8.75;4.90;;;21.10;99.90;;;;;;4955698;28;20031;-51
2022/08/18 03:07:26;;;;;;;7.28;5.60;;;21.20;99.90;;;;;;4955537;28;20031;-51
2022/08/18 03:09:52;;;;;;;8.93;5.43;;;21.20;99.90;;;;;;4955647;28;20023;-51
2022/08/18 03:12:17;;;;;;;5.65;4.65;;;21.10;99.90;;;;;;4955172;28;20031;-49
2022/08/18 03:14:43;;;;;;;9.10;5.55;;;21.10;99.90;;;;;;4955431;28;20050;-51
2022/08/18 03:17:08;;;;;;;8.88;5.53;;;21.00;99.90;;;;;;4955228;28;20370;-49
2022/08/18 03:19:34;;;;;;;6.97;5.10;;;21.00;99.90;;;;;;4955444;28;20039;-49
2022/08/18 03:22:00;;;;;;;5.93;4.70;;;21.00;99.90;;;;;;4954358;28;20484;-53
2022/08/18 03:24:26;;;;;;;8.50;4.97;;;21.00;99.90;;;;;;4955251;28;20038;-50
2022/08/18 03:26:55;;;;;;;7.20;5.00;;;21.00;99.90;;;;;;4954966;28;20039;-49
2022/08/18 03:29:21;;;;;;;8.63;5.93;;;21.00;99.90;;;;;;4955245;28;20023;-50
2022/08/18 03:31:48;;;;;;;6.28;5.50;;;21.00;99.90;;;;;;4954814;28;20042;-52
2022/08/18 03:34:15;;;;;;;5.68;5.13;;;20.90;99.90;;;;;;4955010;28;20038;-49
2022/08/18 03:36:40;;;;;;;6.93;5.18;;;20.90;99.90;;;;;;4954833;28;20106;-53
2022/08/18 03:39:11;;;;;;;5.47;4.97;;;20.90;99.90;;;;;;4955068;28;20123;-51
2022/08/18 03:41:42;;;;;;;5.50;4.95;;;20.90;99.90;;;;;;4955053;28;20109;-51
2022/08/18 03:44:08;;;;;;;7.90;4.97;;;20.90;99.90;;;;;;4954551;28;20392;-49
2022/08/18 03:46:34;;;;;;;6.25;5.03;;;20.90;99.90;;;;;;4954786;28;20064;-48
2022/08/18 03:49:00;;;;;;;5.97;4.53;;;21.00;99.90;;;;;;4953530;28;20109;-49
2022/08/18 03:51:30;;;;;;;7.85;5.07;;;20.90;99.90;;;;;;4954784;28;20023;-52
2022/08/18 03:53:59;;;;;;;6.38;5.50;;;21.00;99.90;;;;;;4954754;28;20489;-50
2022/08/18 03:56:28;;;;;;;5.50;4.93;;;20.90;99.90;;;;;;4954723;28;20027;-49
2022/08/18 03:58:57;;;;;;;9.57;4.72;;;20.90;99.90;;;;;;4954550;28;20027;-50
2022/08/18 04:01:27;;;;;;;7.18;4.63;;;20.90;99.90;;;;;;4954415;28;20023;-53
2022/08/18 04:03:55;;;;;;;5.20;4.70;;;21.00;99.90;;;;;;4954435;28;20560;-50
2022/08/18 04:06:28;;;;;;;5.63;5.10;;;20.90;99.90;;;;;;4954456;28;20102;-49
2022/08/18 04:08:55;;;;;;;5.78;5.00;;;20.90;99.90;;;;;;4954399;28;20031;-50
2022/08/18 04:11:21;;;;;;;8.50;5.70;;;20.90;99.90;;;;;;4954362;28;20031;-51
2022/08/18 04:13:47;;;;;;;6.25;5.30;;;20.80;99.90;;;;;;4954189;28;20027;-51
2022/08/18 04:16:12;;;;;;;8.10;4.88;;;20.80;99.90;;;;;;4954351;28;20486;-49
2022/08/18 04:18:38;;;;;;;8.20;4.85;;;20.80;99.90;;;;;;4954194;28;20110;-50
2022/08/18 04:21:07;;;;;;;5.93;5.28;;;20.80;99.90;;;;;;4954187;28;20374;-49
2022/08/18 04:23:39;;;;;;;5.30;4.90;;;20.80;99.90;;;;;;4953786;28;20020;-50
2022/08/18 04:26:07;;;;;;;6.05;5.13;;;20.90;99.90;;;;;;4953868;28;20039;-53
2022/08/18 04:28:34;;;;;;;6.40;5.80;;;20.80;99.90;;;;;;4954110;28;20023;-48
2022/08/18 04:31:06;;;;;;;5.63;5.13;;;20.90;99.90;;;;;;4953947;28;20038;-49
2022/08/18 04:33:31;;;;;;;7.35;5.10;;;20.90;99.90;;;;;;4952951;28;20031;-48
2022/08/18 04:35:57;;;;;;;7.32;5.28;;;20.90;99.90;;;;;;4952746;28;20167;-52
2022/08/18 04:38:23;;;;;;;7.32;5.50;;;20.90;99.90;;;;;;4953746;28;20394;-51
2022/08/18 04:40:49;;;;;;;5.10;4.60;;;20.90;99.90;;;;;;4953952;28;20023;-49
2022/08/18 04:43:14;;;;;;;6.32;5.07;;;20.90;99.90;;;;;;4953555;28;20034;-49
2022/08/18 04:45:46;;;;;;;6.75;4.72;;;20.80;99.90;;;;;;4953906;28;20106;-49
2022/08/18 04:48:14;;;;;;;5.65;5.15;;;20.80;99.90;;;;;;4953778;28;20028;-52
2022/08/18 04:50:40;;;;;;;5.25;4.82;;;20.80;99.90;;;;;;4953953;28;20019;-49
2022/08/18 04:55:52;;;;;;;6.03;4.95;;;20.80;99.90;;;;;;4953898;29;20467;-49
2022/08/18 04:58:22;;;;;;;5.47;4.97;;;20.80;99.90;;;;;;4953648;28;20035;-52
2022/08/18 05:00:57;;;;;;;5.60;5.10;;;20.80;99.90;;;;;;4953600;28;20382;-49
2022/08/18 05:03:25;;;;;;;;;;;20.70;99.90;;;;;;4953679;28;20023;-50
2022/08/18 05:05:53;;;;;;;8.30;5.28;;;20.70;99.90;;;;;;4953475;28;20338;-48
2022/08/18 05:08:19;;;;;;;7.43;5.68;;;20.70;99.90;;;;;;4953426;28;20481;-53
2022/08/18 05:10:46;;;;;;;8.85;5.25;;;20.60;99.90;;;;;;4953404;28;20043;-51
2022/08/18 05:13:15;;;;;;;11.60;5.43;;;20.60;99.90;;;;;;4953159;28;20030;-51
2022/08/18 05:15:42;;;;;;;8.18;5.05;;;20.60;99.90;;;;;;4953300;28;20031;-49
2022/08/18 05:18:08;;;;;;;6.72;5.07;;;20.50;99.90;;;;;;4953266;28;20560;-49
2022/08/18 05:20:33;;;;;;;6.53;5.13;;;20.60;99.90;;;;;;4953380;28;20107;-49
2022/08/18 05:22:59;;;;;;;6.07;5.45;;;20.50;99.90;;;;;;4952870;28;20019;-53
2022/08/18 05:25:24;;;;;;;6.75;5.45;;;20.50;99.90;;;;;;4953225;28;20027;-50
2022/08/18 05:27:50;;;;;;;6.03;5.43;;;20.50;99.90;;;;;;4953264;28;20027;-50
2022/08/18 05:30:15;;;;;;;7.72;5.50;;;20.60;99.90;;;;;;4953178;28;20039;-50
2022/08/18 05:32:44;;;;;;;5.15;4.72;;;20.60;99.90;;;;;;4952996;28;20038;-50
2022/08/18 05:35:16;;;;;;;9.43;4.95;;;20.60;99.90;;;;;;4953276;28;20057;-55
2022/08/18 05:37:46;;;;;;;7.15;5.18;;;20.60;99.90;;;;;;4953276;28;20031;-48
2022/08/18 05:40:13;;;;;;;5.63;5.03;;;20.50;99.90;;;;;;4953065;28;20057;-49
2022/08/18 05:42:39;;;;;;;10.27;5.30;;;20.50;99.90;;;;;;4952787;28;20032;-52
2022/08/18 05:45:21;;;;;;;6.80;5.72;;;20.50;99.90;;;;;;4954992;28;20412;-50
2022/08/18 05:47:47;;;;;;;6.82;4.63;;;20.60;99.90;;;;;;4957243;28;20378;-47
2022/08/18 05:50:17;;;;;;;6.78;5.60;;;20.60;99.90;;;;;;4956724;28;20027;-53
2022/08/18 05:53:07;;;;;;;7.60;5.32;;;20.50;99.90;;;;;;4956459;28;20042;-50
2022/08/18 05:58:30;;;;;;;5.72;5.25;;;20.50;99.90;;;;;;4956837;29;20596;-49
2022/08/18 06:01:01;;;;;;;7.72;6.07;;;20.60;99.90;;;;;;4956588;28;20027;-50
2022/08/18 06:03:47;;;;;;;7.13;6.43;;;20.60;99.90;;;;;;4956416;28;20489;-51
2022/08/18 06:06:18;;;;;;;6.47;5.60;;;20.60;99.90;;;;;;4956686;28;20050;-49
2022/08/18 06:08:56;;;;;;;7.45;6.00;;;20.50;99.90;;;;;;4956600;28;20031;-50
2022/08/18 06:11:22;;;;;;;8.32;5.70;;;20.50;99.90;;;;;;4956620;28;20553;-53
2022/08/18 06:13:48;;;;;;;6.30;5.53;;;20.50;99.90;;;;;;4956321;28;20503;-52
2022/08/18 06:16:37;;;;;;;10.50;6.15;;;20.40;99.90;;;;;;4956405;28;20035;-51
2022/08/18 06:19:21;;;;;;;6.70;5.95;;;20.50;99.90;;;;;;4956436;28;20497;-51
2022/08/18 06:22:15;;;;;;;7.95;6.40;;;20.50;99.90;;;;;;4956564;28;20078;-47
2022/08/18 06:25:00;;;;;;;7.00;5.78;;;20.60;99.90;;;;;;4956378;28;20030;-49
2022/08/18 06:27:38;;;;;;;7.88;5.65;;;20.60;99.90;;;;;;4955162;28;20035;-48
2022/08/18 06:30:13;;;;;;;5.55;5.15;;;20.60;99.90;;;;;;4956875;28;20046;-49
2022/08/18 06:33:09;;;;;;;6.13;5.53;;;20.70;99.90;;;;;;4956353;28;20031;-51
2022/08/18 06:35:44;;;;;;;7.97;5.60;;;20.70;99.90;;;;;;4956205;28;20032;-49
2022/08/18 06:38:39;;;;;;;6.82;5.78;;;20.80;99.90;;;;;;4956242;28;20035;-52
2022/08/18 06:41:21;;;;;;;6.35;5.57;;;20.80;99.90;;;;;;4957470;28;20030;-48
2022/08/18 06:43:52;;;;;;;6.32;5.68;;;20.80;99.90;;;;;;4956031;28;20062;-49
2022/08/18 06:46:27;;;;;;;7.10;5.45;;;20.80;99.90;;;;;;4955997;28;20444;-51
2022/08/18 06:48:57;;;;;;;8.57;6.13;;;20.80;99.90;;;;;;4956068;28;20101;-49
2022/08/18 06:51:26;;;;;;;7.82;7.03;;;20.80;99.90;;;;;;4955979;28;20103;-51
2022/08/18 06:53:57;;;;;;;6.78;6.05;;;20.70;99.90;;;;;;4955906;28;20031;-51
2022/08/18 06:56:38;;;;;;;9.25;6.85;;;20.70;99.90;;;;;;4954105;28;20027;-49
2022/08/18 06:59:22;;;;;;;8.63;6.78;;;20.70;99.90;;;;;;4956316;28;20507;-51
2022/08/18 07:02:10;;;;;;;8.88;6.28;;;20.70;99.90;;;;;;4955709;28;20354;-49
2022/08/18 07:04:42;;;;;;;11.77;6.55;;;20.60;99.90;;;;;;4955789;29;20039;-49
2022/08/18 07:07:13;;;;;;;7.28;6.50;;;20.70;99.90;;;;;;4955776;28;20162;-48
2022/08/18 07:09:38;;;;;;;6.70;5.70;;;20.60;99.90;;;;;;4955888;28;20031;-52
2022/08/18 07:12:09;;;;;;;7.75;6.35;;;20.60;99.90;;;;;;4954189;29;20031;-50
2022/08/18 07:14:53;;;;;;;9.65;6.75;;;20.60;99.90;;;;;;4955537;28;20028;-48
2022/08/18 07:17:37;;;;;;;5.88;5.38;;;20.60;99.90;;;;;;4955448;28;20031;-50
2022/08/18 07:20:07;;;;;;;7.35;6.45;;;20.70;99.90;;;;;;4955562;28;20030;-52
2022/08/18 07:22:52;;;;;;;7.25;6.10;;;20.70;99.90;;;;;;4955098;28;20070;-50
2022/08/18 07:25:24;;;;;;;9.98;6.55;;;20.70;99.90;;;;;;4955287;28;20441;-50
2022/08/18 07:27:54;;;;;;;7.65;6.25;;;20.70;99.90;;;;;;4955567;28;20057;-54
2022/08/18 07:30:23;;;;;;;6.18;5.45;;;20.70;99.90;;;;;;4955915;28;20484;-53
2022/08/18 07:33:28;;;;;;;6.93;5.97;;;20.70;99.90;;;;;;4955520;28;20032;-50
2022/08/18 07:36:02;;;;;;;8.20;6.15;;;20.70;99.90;;;;;;4914852;29;20075;-50
2022/08/18 07:39:20;;;;;;;8.13;5.78;;;20.70;99.90;;;;;;4932883;29;20513;-55
2022/08/18 07:41:56;;;;;;;6.43;5.82;;;20.80;99.90;;;;;;4926064;29;20091;-51
2022/08/18 07:44:43;;;;;;;6.22;5.55;;;20.80;99.90;;;;;;4937781;28;20408;-50
2022/08/18 07:47:15;;;;;;;6.60;6.00;;;20.80;99.90;;;;;;4941952;29;20055;-50
2022/08/18 07:49:43;;;;;;;6.88;6.25;;;20.80;99.90;;;;;;4940571;28;20047;-54
2022/08/18 07:52:27;;;;;;;6.70;6.00;;;20.80;99.90;;;;;;4936845;29;20032;-50
2022/08/18 07:55:25;;;;;;;6.93;6.23;;;20.80;99.90;;;;;;4954838;28;20027;-47
2022/08/18 07:58:16;;;;;;;5.88;5.38;;;20.80;99.90;;;;;;4954873;28;20023;-49
2022/08/18 08:00:51;;;;;;;8.43;7.00;;;20.80;99.90;;;;;;4954704;28;20126;-49
2022/08/18 08:03:22;;;;;;;8.93;6.25;;;20.80;99.90;;;;;;4954430;28;20023;-49
2022/08/18 08:06:11;;;;;;;6.63;5.93;;;20.80;99.90;;;;;;4941046;28;20121;-54
2022/08/18 08:08:58;;;;;;;8.98;6.95;;;20.90;99.90;;;;;;4935458;29;20093;-50
2022/08/18 08:11:51;;;;;;;11.45;6.35;;;20.80;99.90;;;;;;4957119;28;20031;-47
2022/08/18 08:14:34;;;;;;;7.25;6.55;;;20.80;99.90;;;;;;4973834;28;20027;-50
2022/08/18 08:17:22;;;;;;;7.15;6.53;;;20.80;99.90;;;;;;4974396;28;20041;-53
2022/08/18 08:20:02;;;;;;;8.23;7.03;;;20.70;99.90;;;;;;4974597;28;20029;-47
2022/08/18 08:22:36;;;;;;;7.20;6.45;;;20.70;99.90;;;;;;4974759;28;20027;-58
2022/08/18 08:25:06;;;;;;;8.80;6.65;;;20.80;99.90;;;;;;4974113;28;20440;-48
2022/08/18 08:27:41;;;;;;;7.40;6.70;;;20.80;99.90;;;;;;4973286;28;20092;-50
2022/08/18 08:30:17;;;;;;;11.65;6.57;;;20.90;99.90;;;;;;4973524;28;20054;-52
2022/08/18 08:33:13;;;;;;;12.82;6.90;;;20.90;99.90;;;;;;4958598;28;20039;-48
2022/08/18 08:35:49;;;;;;;12.85;7.30;;;21.00;99.90;;;;;;4955377;28;20485;-52
2022/08/18 08:38:20;;;;;;;8.38;7.40;;;21.10;99.90;;;;;;4954579;28;20396;-54
2022/08/18 08:41:14;;;;;;;7.70;6.93;;;21.20;99.90;;;;;;4943594;29;20023;-49
2022/08/18 08:43:44;;;;;;;9.77;6.53;;;21.30;99.90;;;;;;4930738;29;20039;-50
2022/08/18 08:46:24;;;;;;;8.90;7.95;;;21.40;99.90;;;;;;4934348;29;20027;-51
2022/08/18 08:49:04;;;;;;;8.95;8.05;;;21.60;99.90;;;;;;4934788;29;20059;-49
2022/08/18 08:51:42;;;;;;;11.52;8.48;;;21.60;99.90;;;;;;4934627;29;20039;-49
2022/08/18 08:54:38;;;;;;;10.48;8.13;;;21.50;99.90;;;;;;4934436;29;20031;-52
2022/08/18 08:57:04;;;;;;;14.05;8.48;;;21.50;99.90;;;;;;4933185;29;20043;-51
2022/08/18 08:59:29;;;;;;;8.93;8.07;;;21.50;99.90;;;;;;4934670;29;20094;-53
2022/08/18 09:02:42;;;;;;;8.98;7.90;;;21.50;99.90;;;;;;4934242;29;20426;-54
2022/08/18 09:05:15;;;;;;;10.07;8.68;;;21.60;99.90;;;;;;4934437;29;20110;-50
2022/08/18 09:08:08;;;;;;;10.15;9.15;;;21.70;99.90;;;;;;4933115;29;20485;-53
2022/08/18 09:10:56;;;;;;;27.20;24.25;;;21.80;99.90;;;;;;4934480;29;20469;-49
2022/08/18 09:13:59;;;;;;;84.07;59.22;;;21.90;99.90;;;;;;4934160;29;20502;-49
2022/08/18 09:16:34;;;;;;;64.88;48.53;;;22.10;99.90;;;;;;4934476;29;20034;-49
2022/08/18 09:19:18;;;;;;;14.40;12.57;;;22.20;99.90;;;;;;4932528;29;20520;-49
2022/08/18 09:21:58;;;;;;;10.83;9.03;;;22.30;99.90;;;;;;4937767;29;20042;-51
2022/08/18 09:24:27;;;;;;;12.45;8.90;;;22.50;99.90;;;;;;4949035;29;20036;-50
2022/08/18 09:27:13;;;;;;;10.68;9.15;;;22.50;99.90;;;;;;4952845;28;20027;-49
2022/08/18 09:29:47;;;;;;;11.25;9.32;;;22.60;99.90;;;;;;4952734;29;20035;-49
2022/08/18 09:32:19;;;;;;;10.07;9.07;;;22.60;99.90;;;;;;4953280;28;20033;-48
2022/08/18 09:34:50;;;;;;;10.50;7.78;;;22.60;99.90;;;;;;4953486;28;20137;-50
2022/08/18 09:37:21;;;;;;;10.23;8.57;;;22.60;99.90;;;;;;4953320;28;20067;-49
2022/08/18 09:43:28;;;;;;;11.07;8.15;;;22.60;99.90;;;;;;4944928;29;20034;-48
2022/08/18 09:45:59;;;;;;;10.40;9.40;;;22.60;99.90;;;;;;4953351;28;20032;-48
2022/08/18 09:48:28;;;;;;;10.27;9.15;;;22.50;99.90;;;;;;4953301;28;20023;-52
2022/08/18 09:51:00;;;;;;;10.10;8.57;;;22.40;99.90;;;;;;4953056;28;20386;-50
2022/08/18 09:53:52;;;;;;;9.80;8.30;;;22.40;99.90;;;;;;4953126;28;20082;-51
2022/08/18 09:56:48;;;;;;;11.73;9.70;;;22.40;99.90;;;;;;4953573;28;20023;-48
2022/08/18 09:59:36;;;;;;;13.93;10.85;;;22.40;99.90;;;;;;4952902;28;20114;-48
2022/08/18 10:02:07;;;;;;;12.70;10.63;;;22.30;99.90;;;;;;4952615;28;20046;-54
2022/08/18 10:04:47;;;;;;;10.90;9.80;;;22.30;99.90;;;;;;4953660;28;20094;-49
2022/08/18 10:07:36;;;;;;;11.40;10.20;;;22.30;99.90;;;;;;4951739;28;20044;-49
2022/08/18 10:10:06;;;;;;;11.50;9.85;;;22.30;99.90;;;;;;4933716;29;20034;-50
2022/08/18 10:12:40;;;;;;;11.98;10.05;;;22.20;99.90;;;;;;4933559;29;20027;-48
2022/08/18 10:15:35;;;;;;;11.88;10.23;;;22.30;99.90;;;;;;4932648;29;20397;-50
2022/08/18 10:18:32;;;;;;;11.43;10.23;;;22.30;99.90;;;;;;4934104;29;20046;-50
2022/08/18 10:21:09;;;;;;;14.45;10.10;;;22.30;99.90;;;;;;4934169;29;20027;-52
2022/08/18 10:23:47;;;;;;;15.48;10.70;;;22.30;99.90;;;;;;4948600;29;20027;-49
2022/08/18 10:26:36;;;;;;;12.88;11.40;;;22.20;99.90;;;;;;4951852;28;20024;-50
2022/08/18 10:29:10;;;;;;;14.50;11.82;;;22.20;99.90;;;;;;4933834;29;20486;-52
2022/08/18 10:31:54;;;;;;;14.18;12.05;;;22.10;99.90;;;;;;4934396;29;20102;-52
2022/08/18 10:34:41;;;;;;;13.98;12.52;;;22.10;99.90;;;;;;4937607;29;20031;-51
2022/08/18 10:37:17;;;;;;;16.77;12.82;;;22.20;99.90;;;;;;4937040;29;20024;-54
2022/08/18 10:39:46;;;;;;;14.35;12.85;;;22.20;99.90;;;;;;4947906;29;20082;-53
2022/08/18 10:42:32;;;;;;;13.18;11.00;;;22.30;99.90;;;;;;4937213;29;20048;-50
2022/08/18 10:45:14;;;;;;;16.83;14.18;;;22.40;99.90;;;;;;4949818;29;20034;-52
2022/08/18 10:47:41;;;;;;;58.03;48.08;;;22.50;99.90;;;;;;4954392;28;20035;-52
2022/08/18 10:50:28;;;;;;;22.33;18.13;;;22.60;99.90;;;;;;4942085;29;20046;-50
2022/08/18 10:53:15;;;;;;;16.55;14.70;;;22.80;99.90;;;;;;4955534;28;20114;-49
2022/08/18 10:56:03;;;;;;;14.80;13.30;;;22.90;99.90;;;;;;4938439;28;20027;-46
2022/08/18 10:58:32;;;;;;;16.83;14.63;;;23.00;99.90;;;;;;4937445;28;20036;-51
2022/08/18 11:01:24;;;;;;;18.98;16.60;;;23.00;99.90;;;;;;4953348;29;20027;-49
2022/08/18 11:04:01;;;;;;;17.70;15.57;;;23.10;99.90;;;;;;4934659;29;20028;-51
2022/08/18 11:06:28;;;;;;;19.90;15.65;;;23.10;99.90;;;;;;4935123;29;20019;-53
2022/08/18 11:08:59;;;;;;;16.10;14.40;;;23.20;99.90;;;;;;4938421;29;20545;-49
2022/08/18 11:11:55;;;;;;;18.95;15.38;;;23.20;99.90;;;;;;4955104;28;20035;-49
2022/08/18 11:14:42;;;;;;;24.08;18.80;;;23.30;99.90;;;;;;4942723;28;20115;-52
2022/08/18 11:17:27;;;;;;;20.00;17.90;;;23.50;99.90;;;;;;4955607;28;20129;-50
2022/08/18 11:19:54;;;;;;;20.48;16.40;;;23.50;99.90;;;;;;4951212;28;20441;-51
2022/08/18 11:22:26;;;;;;;28.77;18.58;;;23.50;99.90;;;;;;4953669;28;20117;-49
2022/08/18 11:24:51;;;;;;;21.65;16.10;;;23.70;99.90;;;;;;4938867;28;20051;-54
2022/08/18 11:27:45;;;;;;;24.00;18.33;;;23.90;99.90;;;;;;4947227;28;20509;-50
2022/08/18 11:30:11;;;;;;;32.10;24.80;;;24.20;99.90;;;;;;4934868;29;20050;-50
2022/08/18 11:32:39;;;;;;;25.85;20.98;;;24.50;99.90;;;;;;4949585;29;20031;-47
2022/08/18 11:35:15;;;;;;;19.83;17.75;;;24.60;99.90;;;;;;4954950;28;20027;-53
2022/08/18 11:37:43;;;;;;;21.85;19.52;;;24.60;99.90;;;;;;4974276;28;20030;-50
2022/08/18 11:40:17;;;;;;;21.55;18.90;;;24.60;99.90;;;;;;4974070;28;20026;-48
2022/08/18 11:42:53;;;;;;;24.55;18.35;;;24.50;99.90;;;;;;4960721;28;20020;-50
2022/08/18 11:45:22;;;;;;;31.13;21.55;;;24.60;99.90;;;;;;4936414;28;20083;-48
2022/08/18 11:48:01;;;;;;;23.98;21.38;;;24.60;99.90;;;;;;4935633;29;20106;-49
2022/08/18 11:50:29;;;;;;;21.85;18.77;;;24.70;99.90;;;;;;4948181;28;20031;-49
2022/08/18 11:52:55;;;;;;;20.48;18.35;;;24.70;99.90;;;;;;4954135;28;20028;-50
2022/08/18 11:55:35;;;;;;;19.95;17.85;;;24.60;99.90;;;;;;4938551;28;20032;-50
2022/08/18 11:58:03;;;;;;;18.65;16.65;;;24.70;99.90;;;;;;4941179;29;20031;-51
2022/08/18 12:00:52;;;;;;;17.00;15.18;;;24.80;99.90;;;;;;4944650;29;20083;-49
2022/08/18 12:03:44;;;;;;;16.80;13.75;;;24.80;99.90;;;;;;4935493;28;20429;-49
2022/08/18 12:06:24;;;;;;;16.67;13.82;;;24.80;99.90;;;;;;4942991;29;20089;-54
2022/08/18 12:09:17;;;;;;;18.80;15.00;;;24.80;99.90;;;;;;4936759;28;20024;-55
2022/08/18 12:12:04;;;;;;;15.30;13.63;;;24.90;99.90;;;;;;4937471;29;20548;-50
2022/08/18 12:14:33;;;;;;;15.95;14.30;;;24.90;99.90;;;;;;4949735;28;20039;-51
2022/08/18 12:16:59;;;;;;;17.45;14.95;;;25.00;99.90;;;;;;4946314;28;20042;-48
2022/08/18 12:19:26;;;;;;;16.70;14.90;;;25.10;99.90;;;;;;4950153;28;20516;-50
2022/08/18 12:21:55;;;;;;;14.32;12.82;;;25.10;99.90;;;;;;4938877;29;20031;-47
2022/08/18 12:24:24;;;;;;;17.73;11.48;;;25.20;99.90;;;;;;4954173;28;20019;-48
2022/08/18 12:26:50;;;;;;;12.00;10.75;;;25.20;99.90;;;;;;4954281;28;20175;-49
2022/08/18 12:29:16;;;;;;;11.18;10.18;;;25.30;99.90;;;;;;4954073;28;20031;-48
2022/08/18 12:31:44;;;;;;;11.90;10.45;;;25.20;99.90;;;;;;4954286;28;20222;-49
2022/08/18 12:34:10;;;;;;;11.90;9.82;;;25.10;99.90;;;;;;4954099;28;20405;-51
2022/08/18 12:36:36;;;;;;;10.25;8.85;;;25.10;99.90;;;;;;4954089;28;20023;-49
2022/08/18 12:39:02;;;;;;;10.00;9.10;;;25.00;99.90;;;;;;4954374;28;20491;-46
2022/08/18 12:41:27;;;;;;;10.52;9.40;;;24.90;99.90;;;;;;4954022;28;20027;-47
2022/08/18 12:43:53;;;;;;;9.70;8.82;;;25.00;99.90;;;;;;4953632;28;20031;-50
2022/08/18 12:46:19;;;;;;;9.27;8.23;;;25.00;99.60;;;;;;4954102;28;20019;-47
2022/08/18 12:48:45;;;;;;;10.57;8.40;;;24.90;99.20;;;;;;4954189;28;20031;-46
2022/08/18 12:51:12;;;;;;;9.98;8.88;;;24.90;99.70;;;;;;4954278;28;20032;-46
2022/08/18 12:53:38;;;;;;;11.70;9.93;;;25.00;99.90;;;;;;4953513;28;20114;-50
2022/08/18 12:56:06;;;;;;;10.48;9.48;;;25.00;99.90;;;;;;4953886;28;20039;-49
2022/08/18 12:58:31;;;;;;;12.02;10.05;;;25.10;99.70;;;;;;4953819;28;20539;-46
2022/08/18 13:00:57;;;;;;;10.95;9.88;;;25.10;99.80;;;;;;4954127;28;20031;-45
2022/08/18 13:03:22;;;;;;;11.73;9.15;;;25.00;99.90;;;;;;4954042;28;20019;-46
2022/08/18 13:05:48;;;;;;;9.90;8.93;;;25.00;99.90;;;;;;4954227;28;20035;-49
2022/08/18 13:08:19;;;;;;;9.02;8.13;;;25.10;99.70;;;;;;4953749;28;20027;-48
2022/08/18 13:10:46;;;;;;;10.90;9.82;;;25.20;99.60;;;;;;4953842;28;20512;-49
2022/08/18 13:13:17;;;;;;;10.38;8.48;;;25.30;99.40;;;;;;4953574;28;20035;-50
2022/08/18 13:15:42;;;;;;;9.85;8.93;;;25.40;99.10;;;;;;4952533;29;20110;-47
2022/08/18 13:18:08;;;;;;;9.40;8.40;;;25.30;99.30;;;;;;4953587;28;20118;-46
2022/08/18 13:20:35;;;;;;;11.40;9.57;;;25.30;99.50;;;;;;4953776;28;20366;-49
2022/08/18 13:23:01;;;;;;;10.23;9.25;;;25.30;99.60;;;;;;4953287;28;20102;-48